PWSweather.com
Personal Weather Stations
Station Observations
WEERMORTEL
De MortelNL 5425

De MortelNL 5425

Lat: 51.5409552, Lon: 5.7064856

Elevation: 54

Station Type: Davis Vantage Pro

http://www.weerdemortel.nl

Latest ConditionsUpdated 3:20:04 AM GMT+01:01 Saturday, Feb 24, 2018
Currently Today's Max Today's Min Today's Average
Temperature 26.4°F-3.1°C 28.2°F-2.1°C 26.4°F-3.1°C 27.6°F-2.4°C
Dew Point 16.3°F-8.7°C 20.1°F-6.6°C 16.3°F-8.7°C 17.9°F-7.8°C
Winds 6.0 mph E9.7 kmh E 6.0 mph E9.7 kmh E - 5.1 mph 8.2 kmh
Wind Gusts 11.0 mph17.7 kmh 15.0 mph24.1 kmh - -
Humidity 65% 71% 64% 67%
Pressure 30.19 in1022.4 mb 30.19 in1022.4 mb 30.18 in1022.0 mb -
Hour Temp Dew Point Humidity Winds Wind Gusts Pressure Precip Precip Rate Daily Precip Total
03:20 AM 26.4°F-3.1°C 16.3°F-8.7°C 65% 6.0 mph E9.7 kmh E 11.0 mph17.7 kmh 30.19 in1022.4 mb 0.00 in0.0 mm 0.00 in0.0 mm 0.00 in0.0 mm
03:10 AM 26.6°F-3.0°C 16.3°F-8.7°C 65% 5.0 mph E8.0 kmh E 10.0 mph16.1 kmh 30.19 in1022.4 mb 0.00 in0.0 mm 0.00 in0.0 mm 0.00 in0.0 mm
03:00 AM 26.8°F-2.9°C 16.5°F-8.6°C 65% 5.0 mph E8.0 kmh E 12.0 mph19.3 kmh 30.19 in1022.4 mb 0.00 in0.0 mm 0.00 in0.0 mm 0.00 in0.0 mm
02:50 AM 27.0°F-2.8°C 16.3°F-8.7°C 64% 6.0 mph E9.7 kmh E 12.0 mph19.3 kmh 30.19 in1022.4 mb 0.00 in0.0 mm 0.00 in0.0 mm 0.00 in0.0 mm
02:40 AM 27.1°F-2.7°C 16.5°F-8.6°C 64% 5.0 mph E8.0 kmh E 11.0 mph17.7 kmh 30.19 in1022.4 mb 0.00 in0.0 mm 0.00 in0.0 mm 0.00 in0.0 mm
02:30 AM 27.1°F-2.7°C 16.7°F-8.5°C 64% 5.0 mph E8.0 kmh E 13.0 mph20.9 kmh 30.19 in1022.4 mb 0.00 in0.0 mm 0.00 in0.0 mm 0.00 in0.0 mm
02:20 AM 27.3°F-2.6°C 16.7°F-8.5°C 64% 6.0 mph E9.7 kmh E 15.0 mph24.1 kmh 30.18 in1022.0 mb 0.00 in0.0 mm 0.00 in0.0 mm 0.00 in0.0 mm
02:10 AM 27.3°F-2.6°C 17.2°F-8.2°C 65% 6.0 mph E9.7 kmh E 15.0 mph24.1 kmh 30.18 in1022.0 mb 0.00 in0.0 mm 0.00 in0.0 mm 0.00 in0.0 mm
02:00 AM 27.5°F-2.5°C 17.2°F-8.2°C 65% 6.0 mph E9.7 kmh E 13.0 mph20.9 kmh 30.18 in1022.0 mb 0.00 in0.0 mm 0.00 in0.0 mm 0.00 in0.0 mm
01:50 AM 27.7°F-2.4°C 17.4°F-8.1°C 65% 5.0 mph E8.0 kmh E 11.0 mph17.7 kmh 30.18 in1022.0 mb 0.00 in0.0 mm 0.00 in0.0 mm 0.00 in0.0 mm
01:40 AM 27.7°F-2.4°C 17.4°F-8.1°C 65% 6.0 mph E9.7 kmh E 11.0 mph17.7 kmh 30.18 in1022.0 mb 0.00 in0.0 mm 0.00 in0.0 mm 0.00 in0.0 mm
01:30 AM 27.9°F-2.3°C 18.0°F-7.8°C 66% 5.0 mph E8.0 kmh E 10.0 mph16.1 kmh 30.18 in1022.0 mb 0.00 in0.0 mm 0.00 in0.0 mm 0.00 in0.0 mm
01:20 AM 27.9°F-2.3°C 18.0°F-7.8°C 66% 5.0 mph E8.0 kmh E 14.0 mph22.5 kmh 30.18 in1022.0 mb 0.00 in0.0 mm 0.00 in0.0 mm 0.00 in0.0 mm
01:10 AM 27.9°F-2.3°C 18.3°F-7.6°C 67% 5.0 mph E8.0 kmh E 10.0 mph16.1 kmh 30.19 in1022.4 mb 0.00 in0.0 mm 0.00 in0.0 mm 0.00 in0.0 mm
01:00 AM 28.0°F-2.2°C 18.9°F-7.3°C 68% 5.0 mph E8.0 kmh E 9.0 mph14.5 kmh 30.19 in1022.4 mb 0.00 in0.0 mm 0.00 in0.0 mm 0.00 in0.0 mm
12:50 AM 28.0°F-2.2°C 18.9°F-7.3°C 68% 5.0 mph E8.0 kmh E 11.0 mph17.7 kmh 30.18 in1022.0 mb 0.00 in0.0 mm 0.00 in0.0 mm 0.00 in0.0 mm
12:40 AM 28.0°F-2.2°C 19.2°F-7.1°C 69% 4.0 mph E6.4 kmh E 10.0 mph16.1 kmh 30.18 in1022.0 mb 0.00 in0.0 mm 0.00 in0.0 mm 0.00 in0.0 mm
12:30 AM 28.0°F-2.2°C 19.6°F-6.9°C 70% 5.0 mph E8.0 kmh E 11.0 mph17.7 kmh 30.18 in1022.0 mb 0.00 in0.0 mm 0.00 in0.0 mm 0.00 in0.0 mm
12:20 AM 28.0°F-2.2°C 19.6°F-6.9°C 70% 4.0 mph E6.4 kmh E 10.0 mph16.1 kmh 30.18 in1022.0 mb 0.00 in0.0 mm 0.00 in0.0 mm 0.00 in0.0 mm
12:10 AM 28.2°F-2.1°C 19.9°F-6.7°C 71% 4.0 mph E6.4 kmh E 9.0 mph14.5 kmh 30.18 in1022.0 mb 0.00 in0.0 mm 0.00 in0.0 mm 0.00 in0.0 mm
12:00 AM 28.2°F-2.1°C 20.1°F-6.6°C 71% 4.0 mph E6.4 kmh E 9.0 mph14.5 kmh 30.18 in1022.0 mb 0.00 in0.0 mm 0.00 in0.0 mm 0.00 in0.0 mm